Time;durP1;ratioP1;P1;durP2;ratioP2;P2;SDS_P1;SDS_P2;PMS_P1;PMS_P2;Temp;Humidity;BMP_temperature;BMP_pressure;BME280_temperature;BME280_humidity;BME280_pressure;Samples;Min_cycle;Max_cycle;Signal;HPM_P1;HPM_P2
2023/03/01 00:02:21;;;;;;;21.80;17.13;;;4.50;94.10;;;;;;5087364;28;20224;-78
2023/03/01 00:04:48;;;;;;;30.17;18.55;;;4.40;94.10;;;;;;5085945;28;20291;-75
2023/03/01 00:07:15;;;;;;;26.25;19.60;;;4.40;94.20;;;;;;5080933;28;20265;-77
2023/03/01 00:09:45;;;;;;;23.77;20.70;;;4.40;94.30;;;;;;5082177;28;20276;-78
2023/03/01 00:12:15;;;;;;;28.20;21.13;;;4.40;94.40;;;;;;5085914;28;20600;-77
2023/03/01 00:14:42;;;;;;;23.30;18.95;;;4.40;94.60;;;;;;5073865;28;20554;-77
2023/03/01 00:17:09;;;;;;;27.63;20.45;;;4.40;94.70;;;;;;5080806;28;20219;-74
2023/03/01 00:19:37;;;;;;;32.15;21.35;;;4.40;94.80;;;;;;5078803;28;20219;-74
2023/03/01 00:22:04;;;;;;;29.90;22.70;;;4.40;95.00;;;;;;5086786;28;20216;-77
2023/03/01 00:24:32;;;;;;;29.17;21.30;;;4.40;95.10;;;;;;5087128;28;20602;-74
2023/03/01 00:26:59;;;;;;;35.03;22.13;;;4.40;95.10;;;;;;5079885;28;20286;-78
2023/03/01 00:29:28;;;;;;;31.00;22.05;;;4.30;95.20;;;;;;5084973;28;20235;-78
2023/03/01 00:31:54;;;;;;;28.23;21.95;;;4.30;95.40;;;;;;5080475;28;20223;-77
2023/03/01 00:34:22;;;;;;;28.85;21.17;;;4.30;95.40;;;;;;5087330;28;20572;-74
2023/03/01 00:36:49;;;;;;;23.83;19.77;;;4.40;95.50;;;;;;5082714;28;20307;-74
2023/03/01 00:39:16;;;;;;;27.70;19.45;;;4.40;95.40;;;;;;5084733;28;20704;-74
2023/03/01 00:41:44;;;;;;;25.80;18.10;;;4.30;95.50;;;;;;5078235;28;20226;-77
2023/03/01 00:44:11;;;;;;;25.20;19.73;;;4.30;95.50;;;;;;5084575;28;20246;-74
2023/03/01 00:46:40;;;;;;;24.70;20.00;;;4.30;95.60;;;;;;5083809;28;20208;-75
2023/03/01 00:49:08;;;;;;;23.30;20.42;;;4.20;95.70;;;;;;5079623;28;20250;-77
2023/03/01 00:51:35;;;;;;;25.80;20.02;;;4.30;96.00;;;;;;5088941;28;20224;-79
2023/03/01 00:54:03;;;;;;;27.35;20.30;;;4.20;96.10;;;;;;5089169;28;20219;-74
2023/03/01 00:56:31;;;;;;;28.60;21.63;;;4.20;96.20;;;;;;5090492;28;20654;-73
2023/03/01 00:58:59;;;;;;;28.25;22.30;;;4.20;96.30;;;;;;5089785;28;20219;-74
2023/03/01 01:01:30;;;;;;;24.05;19.48;;;4.20;96.30;;;;;;5087185;28;20219;-74
2023/03/01 01:04:01;;;;;;;30.02;20.65;;;4.20;96.40;;;;;;5081655;28;20268;-75
2023/03/01 01:06:31;;;;;;;26.90;21.65;;;4.20;96.40;;;;;;5074298;28;20591;-76
2023/03/01 01:08:59;;;;;;;32.38;24.20;;;4.20;96.40;;;;;;5087527;28;20314;-75
2023/03/01 01:11:28;;;;;;;29.45;22.60;;;4.20;96.90;;;;;;5074809;28;20228;-74
2023/03/01 01:13:57;;;;;;;28.70;23.40;;;4.20;96.60;;;;;;5090457;28;20284;-78
2023/03/01 01:16:26;;;;;;;30.98;22.95;;;4.20;96.60;;;;;;5091231;28;20223;-74
2023/03/01 01:18:53;;;;;;;32.40;24.60;;;4.20;96.70;;;;;;5091067;28;20610;-78
2023/03/01 01:21:24;;;;;;;28.00;24.17;;;4.20;96.70;;;;;;5092048;28;20684;-77
2023/03/01 01:23:51;;;;;;;29.92;23.35;;;4.10;96.80;;;;;;5089313;28;20215;-77
2023/03/01 01:26:22;;;;;;;27.38;21.88;;;4.10;96.80;;;;;;5081396;28;20536;-74
2023/03/01 01:28:50;;;;;;;25.80;22.67;;;4.10;96.90;;;;;;5091021;28;20345;-73
2023/03/01 01:31:17;;;;;;;23.85;21.10;;;4.10;96.90;;;;;;5089067;28;20230;-74
2023/03/01 01:33:44;;;;;;;25.98;21.58;;;4.00;96.90;;;;;;5091738;28;20330;-77
2023/03/01 01:36:12;;;;;;;25.52;20.67;;;4.00;96.80;;;;;;5091477;28;20223;-77
2023/03/01 01:38:42;;;;;;;25.55;21.20;;;4.00;96.80;;;;;;5090818;28;20318;-79
2023/03/01 01:41:12;;;;;;;22.10;18.90;;;4.00;96.80;;;;;;5092116;28;20219;-75
2023/03/01 01:43:42;;;;;;;27.98;20.92;;;4.00;96.80;;;;;;5091230;28;20235;-75
2023/03/01 01:46:20;;;;;;;24.60;20.75;;;3.90;96.60;;;;;;5091159;28;20219;-74
2023/03/01 01:48:51;;;;;;;25.73;21.10;;;3.90;96.70;;;;;;5094607;28;20223;-75
2023/03/01 01:51:24;;;;;;;23.38;19.08;;;3.90;96.70;;;;;;5095673;28;20227;-79
2023/03/01 01:53:57;;;;;;;22.23;19.13;;;3.90;96.80;;;;;;5095889;28;20227;-78
2023/03/01 01:56:25;;;;;;;20.95;18.20;;;3.90;96.80;;;;;;5095635;28;20235;-75
2023/03/01 01:58:52;;;;;;;21.58;17.40;;;3.90;96.80;;;;;;5094167;28;20613;-75
2023/03/01 02:01:22;;;;;;;19.55;15.35;;;3.90;96.70;;;;;;5095950;28;20247;-74
2023/03/01 02:03:49;;;;;;;23.27;15.50;;;3.80;96.50;;;;;;5095576;28;20227;-74
2023/03/01 02:06:23;;;;;;;16.30;14.60;;;3.80;96.30;;;;;;5095508;28;20227;-78
2023/03/01 02:08:53;;;;;;;17.77;15.35;;;3.80;96.20;;;;;;5094948;28;20239;-78
2023/03/01 02:11:22;;;;;;;19.63;14.48;;;3.70;96.10;;;;;;5095859;28;20684;-76
2023/03/01 02:13:49;;;;;;;19.42;15.68;;;3.70;96.20;;;;;;5094981;28;20223;-79
2023/03/01 02:16:18;;;;;;;27.15;17.88;;;3.70;96.20;;;;;;5095525;28;20253;-76
2023/03/01 02:18:45;;;;;;;21.52;17.15;;;3.70;96.20;;;;;;5095184;28;20288;-78
2023/03/01 02:21:35;;;;;;;21.95;18.73;;;3.70;96.40;;;;;;5094209;28;20219;-79
2023/03/01 02:24:14;;;;;;;24.20;17.98;;;3.70;96.50;;;;;;5095210;28;20227;-75
2023/03/01 02:26:51;;;;;;;20.75;16.15;;;3.70;96.60;;;;;;5095123;28;20231;-74
2023/03/01 02:29:19;;;;;;;20.00;16.77;;;3.60;96.70;;;;;;5093742;28;20316;-75
2023/03/01 02:31:45;;;;;;;20.17;16.63;;;3.70;96.80;;;;;;5081230;28;20224;-77
2023/03/01 02:34:16;;;;;;;22.63;17.33;;;3.70;96.80;;;;;;5074710;28;20234;-74
2023/03/01 02:36:50;;;;;;;22.10;17.08;;;3.60;96.80;;;;;;5074482;28;20670;-77
2023/03/01 02:39:23;;;;;;;21.73;16.35;;;3.60;96.80;;;;;;5074697;28;20227;-75
2023/03/01 02:41:53;;;;;;;19.40;17.38;;;3.60;97.00;;;;;;5074607;28;20297;-75
2023/03/01 02:44:22;;;;;;;22.58;17.92;;;3.60;97.20;;;;;;5074171;28;20243;-74
2023/03/01 02:46:52;;;;;;;21.63;16.10;;;3.60;97.30;;;;;;5073150;28;20353;-74
2023/03/01 02:49:26;;;;;;;18.17;15.40;;;3.60;97.40;;;;;;5073209;28;20595;-74
2023/03/01 02:52:15;;;;;;;19.60;15.55;;;3.60;97.60;;;;;;5074230;28;20212;-78
2023/03/01 02:54:48;;;;;;;27.02;16.60;;;3.60;97.60;;;;;;5074872;28;20611;-78
2023/03/01 02:57:15;;;;;;;17.42;15.63;;;3.60;97.60;;;;;;5074105;28;20224;-74
2023/03/01 02:59:44;;;;;;;20.85;15.35;;;3.60;97.70;;;;;;5072575;28;20247;-74
2023/03/01 03:02:35;;;;;;;19.65;15.32;;;3.60;97.60;;;;;;5074544;28;20285;-73
2023/03/01 03:05:05;;;;;;;21.65;16.42;;;3.60;97.60;;;;;;5073932;28;20262;-77
2023/03/01 03:07:34;;;;;;;19.42;16.98;;;3.60;97.70;;;;;;5074578;28;20274;-78
2023/03/01 03:10:01;;;;;;;21.33;16.15;;;3.60;97.80;;;;;;5073777;28;20575;-74
2023/03/01 03:12:28;;;;;;;21.02;15.93;;;3.60;97.80;;;;;;5073681;28;20600;-75
2023/03/01 03:14:56;;;;;;;25.45;17.77;;;3.60;97.90;;;;;;5073903;28;20693;-78
2023/03/01 03:17:24;;;;;;;25.67;17.55;;;3.60;98.00;;;;;;5074043;28;20310;-76
2023/03/01 03:19:51;;;;;;;20.13;15.38;;;3.50;98.00;;;;;;5073125;28;20260;-78
2023/03/01 03:22:17;;;;;;;20.02;16.92;;;3.50;98.10;;;;;;5073625;28;20292;-74
2023/03/01 03:24:47;;;;;;;20.02;16.88;;;3.50;98.10;;;;;;5073285;28;20224;-75
2023/03/01 03:27:14;;;;;;;22.25;16.95;;;3.50;98.10;;;;;;5073199;28;20232;-78
2023/03/01 03:29:41;;;;;;;18.23;14.93;;;3.50;98.10;;;;;;5073690;28;20285;-75
2023/03/01 03:32:09;;;;;;;20.08;16.45;;;3.60;98.10;;;;;;5073662;28;20743;-78
2023/03/01 03:34:36;;;;;;;21.92;15.10;;;3.60;98.10;;;;;;5073904;28;20224;-73
2023/03/01 03:37:03;;;;;;;19.95;15.30;;;3.50;98.10;;;;;;5073175;28;20254;-78
2023/03/01 03:39:34;;;;;;;18.95;15.23;;;3.50;98.10;;;;;;5073593;28;20228;-77
2023/03/01 03:42:04;;;;;;;23.45;16.80;;;3.60;98.10;;;;;;5072775;28;20228;-73
2023/03/01 03:44:31;;;;;;;21.80;15.52;;;3.60;98.10;;;;;;5073816;28;20224;-74
2023/03/01 03:46:58;;;;;;;18.90;15.55;;;3.60;98.10;;;;;;5072857;28;20248;-74
2023/03/01 03:49:26;;;;;;;20.17;15.75;;;3.60;98.20;;;;;;5072917;28;20600;-74
2023/03/01 03:51:53;;;;;;;18.98;15.02;;;3.60;98.40;;;;;;5073118;28;20223;-77
2023/03/01 03:54:22;;;;;;;22.70;14.80;;;3.60;98.50;;;;;;5073573;28;20306;-77
2023/03/01 03:56:49;;;;;;;22.00;15.85;;;3.60;98.80;;;;;;5071281;28;20224;-74
2023/03/01 03:59:16;;;;;;;17.60;14.77;;;3.60;98.80;;;;;;5073190;28;20258;-77
2023/03/01 04:01:44;;;;;;;22.65;16.45;;;3.60;98.50;;;;;;5072947;28;20223;-74
2023/03/01 04:04:11;;;;;;;19.40;15.48;;;3.60;98.60;;;;;;5061399;28;20229;-78
2023/03/01 04:06:39;;;;;;;16.63;14.13;;;3.60;98.60;;;;;;5073130;28;20220;-78
2023/03/01 04:09:06;;;;;;;17.17;13.30;;;3.60;98.70;;;;;;5072364;28;20220;-74
2023/03/01 04:11:34;;;;;;;19.38;14.50;;;3.70;98.80;;;;;;5073032;28;20231;-74
2023/03/01 04:14:01;;;;;;;15.48;13.63;;;3.60;98.90;;;;;;5072147;28;20311;-78
2023/03/01 04:16:28;;;;;;;16.65;14.95;;;3.60;98.90;;;;;;5073309;28;20228;-78
2023/03/01 04:18:56;;;;;;;22.13;16.67;;;3.60;99.00;;;;;;5071960;28;20228;-77
2023/03/01 04:21:23;;;;;;;18.60;14.85;;;3.60;99.10;;;;;;5062067;28;20274;-78
2023/03/01 04:23:52;;;;;;;18.70;15.50;;;3.50;99.10;;;;;;5072868;28;20289;-78
2023/03/01 04:26:20;;;;;;;17.52;15.15;;;3.50;99.20;;;;;;5072016;28;20278;-78
2023/03/01 04:28:49;;;;;;;20.08;15.05;;;3.50;99.30;;;;;;5072628;28;20228;-78
2023/03/01 04:31:22;;;;;;;16.80;14.57;;;3.50;99.40;;;;;;5072310;28;20227;-78
2023/03/01 04:33:52;;;;;;;17.42;13.88;;;3.50;99.50;;;;;;5072225;28;20278;-75
2023/03/01 04:36:20;;;;;;;17.10;14.93;;;3.50;99.50;;;;;;5071559;28;20724;-75
2023/03/01 04:38:48;;;;;;;20.95;15.48;;;3.50;99.60;;;;;;5072758;28;20282;-78
2023/03/01 04:41:18;;;;;;;19.45;15.18;;;3.50;99.60;;;;;;5071790;28;20220;-77
2023/03/01 04:43:45;;;;;;;18.85;14.75;;;3.50;99.60;;;;;;5072181;28;20217;-78
2023/03/01 04:46:15;;;;;;;18.15;14.98;;;3.50;99.60;;;;;;5070514;28;20239;-74
2023/03/01 04:48:44;;;;;;;17.25;13.95;;;3.40;99.50;;;;;;5072098;28;20597;-74
2023/03/01 04:51:13;;;;;;;15.27;12.63;;;3.40;99.60;;;;;;5071245;28;20215;-77
2023/03/01 04:53:43;;;;;;;19.20;13.45;;;3.40;99.70;;;;;;5072355;28;20215;-75
2023/03/01 04:56:11;;;;;;;20.02;13.75;;;3.50;99.80;;;;;;5071753;28;20273;-74
2023/03/01 04:58:39;;;;;;;19.40;15.20;;;3.50;99.80;;;;;;5072455;28;20231;-74
2023/03/01 05:01:14;;;;;;;14.93;13.10;;;3.40;99.90;;;;;;5060501;28;20319;-77
2023/03/01 05:03:42;;;;;;;16.30;13.10;;;3.40;99.90;;;;;;5071598;28;20583;-78
2023/03/01 05:06:09;;;;;;;16.10;13.35;;;3.40;99.90;;;;;;5071985;28;20696;-74
2023/03/01 05:08:37;;;;;;;16.77;13.40;;;3.40;99.90;;;;;;5071555;28;20228;-78
2023/03/01 05:11:05;;;;;;;15.20;13.25;;;3.50;99.90;;;;;;5072019;28;20224;-74
2023/03/01 05:13:34;;;;;;;17.55;14.40;;;3.50;99.90;;;;;;5071705;28;20285;-77
2023/03/01 05:16:04;;;;;;;22.00;15.60;;;3.50;99.90;;;;;;5060947;28;20227;-74
2023/03/01 05:18:32;;;;;;;19.88;15.52;;;3.50;99.90;;;;;;5071068;28;20563;-78
2023/03/01 05:21:10;;;;;;;19.85;14.23;;;3.50;99.90;;;;;;5072220;28;20566;-78
2023/03/01 05:23:37;;;;;;;18.30;15.00;;;3.40;99.90;;;;;;5074663;28;20572;-78
2023/03/01 05:26:06;;;;;;;20.02;13.05;;;3.40;99.90;;;;;;5075916;28;20215;-74
2023/03/01 05:28:34;;;;;;;18.80;16.15;;;3.30;99.90;;;;;;5075511;28;20569;-78
2023/03/01 05:31:09;;;;;;;18.98;15.82;;;3.30;99.90;;;;;;5075910;28;20726;-74
2023/03/01 05:33:43;;;;;;;20.50;16.02;;;3.20;99.90;;;;;;5075334;28;20581;-74
2023/03/01 05:36:11;;;;;;;17.10;15.20;;;3.30;99.90;;;;;;5076441;28;20239;-74
2023/03/01 05:38:38;;;;;;;24.40;17.27;;;3.20;99.90;;;;;;5075679;28;20227;-77
2023/03/01 05:41:06;;;;;;;20.05;16.50;;;3.20;99.90;;;;;;5075202;28;20277;-74
2023/03/01 05:43:34;;;;;;;16.77;14.95;;;3.20;99.90;;;;;;5075799;28;20311;-78
2023/03/01 05:46:02;;;;;;;21.10;14.15;;;3.20;99.90;;;;;;5075992;28;20694;-74
2023/03/01 05:48:30;;;;;;;15.95;14.25;;;3.20;99.90;;;;;;5074520;28;20311;-77
2023/03/01 05:51:04;;;;;;;19.85;16.25;;;3.20;99.90;;;;;;5076017;28;20554;-73
2023/03/01 05:53:31;;;;;;;18.05;16.02;;;3.20;99.90;;;;;;5075356;28;20624;-77
2023/03/01 05:55:58;;;;;;;17.48;15.45;;;3.10;99.90;;;;;;5075322;28;20739;-74
2023/03/01 05:58:25;;;;;;;18.50;14.98;;;3.20;99.90;;;;;;5075468;28;20232;-74
2023/03/01 06:00:52;;;;;;;18.20;15.93;;;3.10;99.90;;;;;;5075438;28;20219;-78
2023/03/01 06:03:20;;;;;;;23.70;18.35;;;3.10;99.90;;;;;;5075213;28;20303;-78
2023/03/01 06:05:47;;;;;;;19.75;15.60;;;3.10;99.90;;;;;;5075272;28;21917;-77
2023/03/01 06:08:14;;;;;;;20.67;17.50;;;3.20;99.90;;;;;;5075578;28;20224;-78
2023/03/01 06:10:42;;;;;;;19.48;17.42;;;3.20;99.90;;;;;;5073707;28;20232;-77
2023/03/01 06:13:09;;;;;;;21.20;17.10;;;3.20;99.90;;;;;;5075671;28;20301;-77
2023/03/01 06:15:36;;;;;;;19.55;17.27;;;3.20;99.90;;;;;;5075058;28;20239;-78
2023/03/01 06:18:03;;;;;;;20.73;18.33;;;3.20;99.90;;;;;;5074602;28;20231;-77
2023/03/01 06:20:31;;;;;;;23.98;18.23;;;3.20;99.90;;;;;;5074937;28;20251;-78
2023/03/01 06:22:59;;;;;;;17.08;15.13;;;3.20;99.90;;;;;;5075299;28;20309;-77
2023/03/01 06:25:33;;;;;;;23.88;17.55;;;3.20;99.90;;;;;;5074369;28;20235;-73
2023/03/01 06:28:00;;;;;;;22.40;18.15;;;3.20;99.90;;;;;;5074120;28;20232;-74
2023/03/01 06:30:28;;;;;;;22.00;18.77;;;3.20;99.90;;;;;;5074721;28;20262;-75
2023/03/01 06:33:01;;;;;;;20.77;18.58;;;3.20;99.90;;;;;;5061934;28;20303;-75
2023/03/01 06:35:29;;;;;;;20.67;16.60;;;3.20;99.90;;;;;;5071296;28;20303;-79
2023/03/01 06:37:59;;;;;;;23.25;19.02;;;3.30;99.90;;;;;;5074781;28;20570;-78
2023/03/01 06:40:28;;;;;;;21.60;19.17;;;3.20;99.90;;;;;;5074060;28;20232;-75
2023/03/01 06:42:55;;;;;;;34.03;26.63;;;3.30;99.90;;;;;;5074290;28;20228;-75
2023/03/01 06:45:22;;;;;;;29.15;25.30;;;3.30;99.90;;;;;;5074638;28;20216;-75
2023/03/01 06:47:49;;;;;;;29.70;22.00;;;3.30;99.90;;;;;;5073919;28;20315;-75
2023/03/01 06:50:19;;;;;;;29.35;20.95;;;3.30;99.90;;;;;;5074197;28;20658;-78
2023/03/01 06:52:46;;;;;;;27.27;20.02;;;3.30;99.90;;;;;;5074136;28;20220;-78
2023/03/01 06:55:15;;;;;;;25.77;19.45;;;3.30;99.90;;;;;;5073937;28;20274;-78
2023/03/01 06:57:42;;;;;;;25.30;18.10;;;3.40;99.90;;;;;;5074001;28;20232;-78
2023/03/01 07:00:10;;;;;;;22.92;16.42;;;3.40;99.90;;;;;;5073666;28;20665;-78
2023/03/01 07:02:37;;;;;;;21.65;18.50;;;3.40;99.90;;;;;;5063867;28;20246;-78
2023/03/01 07:05:05;;;;;;;25.33;18.67;;;3.40;99.90;;;;;;5073630;28;20701;-75
2023/03/01 07:07:32;;;;;;;26.73;20.63;;;3.40;99.90;;;;;;5073621;28;20228;-75
2023/03/01 07:09:59;;;;;;;27.73;18.98;;;3.30;99.90;;;;;;5072974;28;20281;-75
2023/03/01 07:12:30;;;;;;;24.05;19.67;;;3.40;99.90;;;;;;5074265;28;20227;-75
2023/03/01 07:14:57;;;;;;;25.58;20.00;;;3.40;99.90;;;;;;5073141;28;20681;-75
2023/03/01 07:17:24;;;;;;;24.80;21.00;;;3.40;99.90;;;;;;5073276;28;20260;-75
2023/03/01 07:19:51;;;;;;;26.88;21.02;;;3.40;99.90;;;;;;5073769;28;20634;-75
2023/03/01 07:22:18;;;;;;;34.10;22.20;;;3.40;99.90;;;;;;5062456;28;20238;-75
2023/03/01 07:24:45;;;;;;;27.38;19.55;;;3.50;99.90;;;;;;5073273;28;20700;-78
2023/03/01 07:27:12;;;;;;;27.73;20.52;;;3.50;99.90;;;;;;5073635;28;20212;-78
2023/03/01 07:29:41;;;;;;;28.00;21.73;;;3.50;99.90;;;;;;5073626;28;20257;-74
2023/03/01 07:32:08;;;;;;;29.88;22.30;;;3.60;99.90;;;;;;5072830;28;20216;-75
2023/03/01 07:34:35;;;;;;;25.92;20.05;;;3.60;99.90;;;;;;5073703;28;20243;-75
2023/03/01 07:37:02;;;;;;;27.42;20.85;;;3.70;99.90;;;;;;5072829;28;20270;-74
2023/03/01 07:39:29;;;;;;;29.25;21.77;;;3.70;99.90;;;;;;5072654;28;20252;-74
2023/03/01 07:41:56;;;;;;;26.25;20.45;;;3.80;99.90;;;;;;5073341;28;20216;-74
2023/03/01 07:44:23;;;;;;;26.85;20.58;;;3.80;99.90;;;;;;5072822;28;20306;-75
2023/03/01 07:46:56;;;;;;;25.65;20.52;;;3.80;99.90;;;;;;5072319;28;20231;-78
2023/03/01 07:49:23;;;;;;;21.85;18.30;;;3.90;99.90;;;;;;5072428;28;20220;-78
2023/03/01 07:51:50;;;;;;;24.98;18.80;;;3.90;99.90;;;;;;5073047;28;20658;-74
2023/03/01 07:54:17;;;;;;;25.00;19.77;;;4.00;99.90;;;;;;5072074;28;20677;-75
2023/03/01 07:56:45;;;;;;;21.30;19.00;;;4.00;99.90;;;;;;5072820;28;20224;-79
2023/03/01 07:59:11;;;;;;;25.63;20.00;;;4.10;99.90;;;;;;5072011;28;20336;-78
2023/03/01 08:01:38;;;;;;;26.15;18.15;;;4.10;99.90;;;;;;5072396;28;20244;-78
2023/03/01 08:04:08;;;;;;;26.35;19.33;;;4.20;99.90;;;;;;5071325;28;20224;-75
2023/03/01 08:06:37;;;;;;;23.30;18.55;;;4.30;99.90;;;;;;5073068;28;20224;-78
2023/03/01 08:09:04;;;;;;;24.25;17.42;;;4.30;99.90;;;;;;5071464;28;20604;-78
2023/03/01 08:11:36;;;;;;;22.40;15.77;;;4.40;99.90;;;;;;5072959;28;20235;-78
2023/03/01 08:14:03;;;;;;;21.02;15.63;;;4.40;99.90;;;;;;5072804;28;20220;-78
2023/03/01 08:16:30;;;;;;;19.42;16.40;;;4.50;99.90;;;;;;5055096;28;20558;-75
2023/03/01 08:19:07;;;;;;;17.98;14.68;;;4.50;99.90;;;;;;5073022;28;20281;-75
2023/03/01 08:21:35;;;;;;;21.10;16.70;;;4.60;99.90;;;;;;5072753;28;20299;-78
2023/03/01 08:24:02;;;;;;;17.85;14.43;;;4.70;99.90;;;;;;5072572;28;20673;-78
2023/03/01 08:26:31;;;;;;;15.80;13.98;;;4.70;99.90;;;;;;5072066;28;20224;-78
2023/03/01 08:28:58;;;;;;;17.45;14.07;;;4.80;99.90;;;;;;5072747;28;20238;-79
2023/03/01 08:31:26;;;;;;;13.77;11.95;;;4.80;99.90;;;;;;5071446;28;20557;-75
2023/03/01 08:33:56;;;;;;;13.75;11.07;;;4.90;99.90;;;;;;5073004;28;20729;-75
2023/03/01 08:36:27;;;;;;;10.45;9.15;;;5.00;99.90;;;;;;5072555;28;20224;-78
2023/03/01 08:38:54;;;;;;;10.80;9.02;;;5.10;99.90;;;;;;5072351;28;20247;-79
2023/03/01 08:41:24;;;;;;;8.43;7.60;;;5.10;99.60;;;;;;5072280;28;20255;-75
2023/03/01 08:43:58;;;;;;;9.15;8.27;;;5.20;99.40;;;;;;5072969;28;20232;-78
2023/03/01 08:46:25;;;;;;;7.65;6.88;;;5.20;99.00;;;;;;5072102;28;20688;-75
2023/03/01 08:48:52;;;;;;;6.57;5.97;;;5.30;98.40;;;;;;5072640;28;20224;-78
2023/03/01 08:51:21;;;;;;;6.80;5.95;;;5.40;98.20;;;;;;5072173;28;20228;-78
2023/03/01 08:53:49;;;;;;;9.20;7.45;;;5.50;98.20;;;;;;5071952;28;20599;-78
2023/03/01 08:56:19;;;;;;;8.98;7.60;;;5.50;98.00;;;;;;5072441;28;20224;-79
2023/03/01 08:58:48;;;;;;;14.68;11.73;;;5.60;97.80;;;;;;5072147;28;20307;-78
2023/03/01 09:01:18;;;;;;;15.77;14.23;;;5.60;97.50;;;;;;5071778;28;20228;-77
2023/03/01 09:03:46;;;;;;;15.85;14.15;;;5.70;97.30;;;;;;5072503;28;20231;-75
2023/03/01 09:06:13;;;;;;;12.93;11.15;;;5.80;97.40;;;;;;5072792;28;20224;-75
2023/03/01 09:08:42;;;;;;;10.13;9.05;;;5.90;96.90;;;;;;5071770;28;20216;-74
2023/03/01 09:11:12;;;;;;;9.98;7.10;;;6.00;96.30;;;;;;5072460;28;20281;-75
2023/03/01 09:13:39;;;;;;;10.13;7.75;;;6.00;96.20;;;;;;5071667;28;20261;-79
2023/03/01 09:16:08;;;;;;;10.32;6.65;;;6.00;96.10;;;;;;5061085;28;20215;-74
2023/03/01 09:18:36;;;;;;;7.82;6.30;;;6.10;95.90;;;;;;5071505;28;20271;-77
2023/03/01 09:21:07;;;;;;;8.80;7.53;;;6.10;95.60;;;;;;5072817;28;20224;-75
2023/03/01 09:23:36;;;;;;;10.93;7.05;;;6.20;95.60;;;;;;5071349;28;20216;-78
2023/03/01 09:26:03;;;;;;;7.90;7.13;;;6.20;95.50;;;;;;5072712;28;20609;-78
2023/03/01 09:28:31;;;;;;;8.25;6.30;;;6.30;95.50;;;;;;5070788;28;20254;-78
2023/03/01 09:31:00;;;;;;;7.75;6.82;;;6.30;95.30;;;;;;5072079;28;20215;-78
2023/03/01 09:33:27;;;;;;;8.25;6.65;;;6.40;94.70;;;;;;5072359;28;20673;-78
2023/03/01 09:35:57;;;;;;;8.30;6.72;;;6.50;94.50;;;;;;5072837;28;20216;-78
2023/03/01 09:38:24;;;;;;;7.88;7.10;;;6.50;94.10;;;;;;5072219;28;20252;-78
2023/03/01 09:40:52;;;;;;;9.68;7.30;;;6.60;94.10;;;;;;5072475;28;20219;-79
2023/03/01 09:43:27;;;;;;;10.30;8.70;;;6.60;93.90;;;;;;5072664;28;20224;-78
2023/03/01 09:46:00;;;;;;;9.82;8.38;;;6.70;93.20;;;;;;5072144;28;20246;-75
2023/03/01 09:48:30;;;;;;;9.52;7.65;;;6.70;93.20;;;;;;5072185;28;20228;-78
2023/03/01 09:50:58;;;;;;;7.28;6.53;;;6.80;93.10;;;;;;5071829;28;20349;-79
2023/03/01 09:53:31;;;;;;;9.20;7.57;;;6.80;93.20;;;;;;5071928;28;20261;-75
2023/03/01 09:56:03;;;;;;;7.63;6.35;;;6.90;93.20;;;;;;5071712;28;20898;-75
2023/03/01 09:58:39;;;;;;;9.70;7.32;;;6.90;92.70;;;;;;5071428;28;20739;-79
2023/03/01 10:01:25;;;;;;;7.32;6.47;;;7.00;92.50;;;;;;5053665;28;20219;-74
2023/03/01 10:04:11;;;;;;;15.85;8.75;;;7.00;92.20;;;;;;5070486;28;20700;-78
2023/03/01 10:06:39;;;;;;;12.30;8.23;;;7.10;92.30;;;;;;5071785;28;20267;-74
2023/03/01 10:09:14;;;;;;;8.70;7.32;;;7.10;92.40;;;;;;5072978;28;20224;-77
2023/03/01 10:11:46;;;;;;;7.43;6.70;;;7.20;92.10;;;;;;5057693;28;20228;-77
2023/03/01 10:14:26;;;;;;;8.13;6.20;;;7.20;92.00;;;;;;5074261;28;20215;-78
2023/03/01 10:17:01;;;;;;;9.18;4.90;;;7.30;91.90;;;;;;5074978;28;20227;-75
2023/03/01 10:19:33;;;;;;;5.65;5.10;;;7.40;90.70;;;;;;5075085;28;20798;-74
2023/03/01 10:22:15;;;;;;;7.22;6.10;;;7.50;90.40;;;;;;5064198;28;20224;-74
2023/03/01 10:24:42;;;;;;;9.10;6.53;;;7.50;89.90;;;;;;5074558;28;20224;-74
2023/03/01 10:27:15;;;;;;;6.70;6.10;;;7.50;87.90;;;;;;5074733;28;20224;-74
2023/03/01 10:29:50;;;;;;;6.00;5.07;;;7.60;86.60;;;;;;5074605;28;20236;-75
2023/03/01 10:32:21;;;;;;;5.78;4.68;;;7.60;85.90;;;;;;5074725;28;20223;-74
2023/03/01 10:34:48;;;;;;;6.22;4.15;;;7.60;85.90;;;;;;5075079;28;20296;-74
2023/03/01 10:37:18;;;;;;;3.60;3.30;;;7.70;85.70;;;;;;5074270;28;20598;-75
2023/03/01 10:40:05;;;;;;;5.65;4.53;;;7.70;85.40;;;;;;5075103;28;20228;-75
2023/03/01 10:42:34;;;;;;;5.80;3.67;;;7.80;84.00;;;;;;5075848;28;20574;-77
2023/03/01 10:45:17;;;;;;;5.30;4.13;;;7.80;82.80;;;;;;5073971;28;20695;-74
2023/03/01 10:47:46;;;;;;;5.93;3.75;;;7.80;83.00;;;;;;5074127;28;20247;-77
2023/03/01 10:50:21;;;;;;;4.47;4.07;;;7.90;79.60;;;;;;5075248;28;20301;-74
2023/03/01 10:52:59;;;;;;;3.83;3.38;;;7.90;79.90;;;;;;5076781;28;20219;-78
2023/03/01 10:55:31;;;;;;;6.63;5.65;;;7.90;80.40;;;;;;5078317;28;20223;-74
2023/03/01 10:58:10;;;;;;;3.95;3.65;;;7.90;78.10;;;;;;5075894;28;20224;-78
2023/03/01 11:00:49;;;;;;;4.63;4.10;;;7.90;77.80;;;;;;5076353;28;20385;-74
2023/03/01 11:03:21;;;;;;;5.00;3.22;;;7.90;77.30;;;;;;5076379;28;20250;-78
2023/03/01 11:06:09;;;;;;;3.88;3.38;;;8.00;77.00;;;;;;5076161;28;20216;-78
2023/03/01 11:08:42;;;;;;;5.10;4.50;;;8.00;75.80;;;;;;5078975;28;20311;-74
2023/03/01 11:11:31;;;;;;;5.57;5.07;;;8.10;76.60;;;;;;5075532;28;20224;-74
2023/03/01 11:14:00;;;;;;;4.70;4.30;;;8.10;76.20;;;;;;5074271;28;20280;-74
2023/03/01 11:16:34;;;;;;;5.40;4.35;;;8.20;76.50;;;;;;5074686;28;20251;-74
2023/03/01 11:19:19;;;;;;;3.92;3.60;;;8.20;76.30;;;;;;5074924;28;20228;-78
2023/03/01 11:21:56;;;;;;;4.45;4.10;;;8.20;76.20;;;;;;5075312;28;20252;-78
2023/03/01 11:24:31;;;;;;;5.65;3.92;;;8.20;76.30;;;;;;5075141;28;20235;-75
2023/03/01 11:27:03;;;;;;;4.00;3.38;;;8.30;76.50;;;;;;5074231;28;20330;-74
2023/03/01 11:29:37;;;;;;;3.85;3.55;;;8.30;76.40;;;;;;5073622;28;20281;-74
2023/03/01 11:32:12;;;;;;;3.83;3.42;;;8.40;76.10;;;;;;5073660;28;20224;-78
2023/03/01 11:34:46;;;;;;;3.30;3.10;;;8.40;76.00;;;;;;5073888;28;20224;-78
2023/03/01 11:37:27;;;;;;;5.60;3.08;;;8.50;73.60;;;;;;5073523;28;20220;-79
2023/03/01 11:39:59;;;;;;;3.45;2.60;;;8.50;72.30;;;;;;5073758;28;20232;-79
2023/03/01 11:42:39;;;;;;;3.15;2.20;;;8.50;69.50;;;;;;5073613;28;20216;-79
2023/03/01 11:45:11;;;;;;;2.13;1.70;;;8.50;67.90;;;;;;5073415;28;20736;-79
2023/03/01 11:48:02;;;;;;;2.83;1.90;;;8.60;66.30;;;;;;5073704;28;20245;-79
2023/03/01 11:50:41;;;;;;;3.50;2.40;;;8.60;64.40;;;;;;5073930;28;20216;-79
2023/03/01 11:53:35;;;;;;;3.95;3.60;;;8.60;64.30;;;;;;5074247;28;20212;-79
2023/03/01 11:56:17;;;;;;;3.30;3.00;;;8.60;63.20;;;;;;5073424;28;20247;-78
2023/03/01 11:59:12;;;;;;;3.22;2.92;;;8.60;62.80;;;;;;5072752;28;20314;-78
2023/03/01 12:01:57;;;;;;;3.20;2.70;;;8.60;63.20;;;;;;5073578;28;20220;-74
2023/03/01 12:05:04;;;;;;;6.65;3.80;;;8.70;64.00;;;;;;5073367;28;20308;-74
2023/03/01 12:07:43;;;;;;;3.63;3.33;;;8.70;63.10;;;;;;5072817;28;20223;-74
2023/03/01 12:10:22;;;;;;;3.97;3.58;;;8.70;62.70;;;;;;5073240;28;20677;-78
2023/03/01 12:13:09;;;;;;;4.68;4.00;;;8.80;62.60;;;;;;5073636;28;20258;-78
2023/03/01 12:16:06;;;;;;;3.95;3.20;;;8.80;62.80;;;;;;5073210;28;20239;-78
2023/03/01 12:19:02;;;;;;;3.30;3.00;;;8.80;61.30;;;;;;5072801;28;20258;-73
2023/03/01 12:21:53;;;;;;;2.60;2.40;;;8.90;61.50;;;;;;5072412;28;20298;-74
2023/03/01 12:24:50;;;;;;;3.00;2.80;;;8.90;61.50;;;;;;5072674;28;20227;-78
2023/03/01 12:27:39;;;;;;;3.28;2.88;;;8.90;61.80;;;;;;5072199;28;20353;-74
2023/03/01 12:30:22;;;;;;;3.90;3.60;;;8.90;62.00;;;;;;5072930;28;20224;-74
2023/03/01 12:33:02;;;;;;;3.33;2.97;;;9.00;62.80;;;;;;5071763;28;20216;-75
2023/03/01 12:35:46;;;;;;;3.15;2.85;;;9.00;63.20;;;;;;5071932;28;20517;-74
2023/03/01 12:38:31;;;;;;;3.97;3.58;;;9.00;63.60;;;;;;5072742;28;20600;-78
2023/03/01 12:41:19;;;;;;;4.65;3.78;;;9.10;63.10;;;;;;5072442;28;20302;-79
2023/03/01 12:43:58;;;;;;;4.22;3.28;;;9.10;62.80;;;;;;5072149;28;20224;-78
2023/03/01 12:46:41;;;;;;;4.20;3.17;;;9.10;62.70;;;;;;5072715;28;20224;-74
2023/03/01 12:49:14;;;;;;;2.63;2.42;;;9.20;62.30;;;;;;5071619;28;20242;-77
2023/03/01 12:51:43;;;;;;;4.18;2.40;;;9.20;62.10;;;;;;5073031;28;20228;-73
2023/03/01 12:54:16;;;;;;;3.67;2.95;;;9.20;62.10;;;;;;5072906;28;20229;-78
2023/03/01 12:56:52;;;;;;;4.70;2.78;;;9.20;62.10;;;;;;5072592;28;20292;-78
2023/03/01 12:59:25;;;;;;;3.03;2.72;;;9.20;62.10;;;;;;5072002;28;20224;-78
2023/03/01 13:02:02;;;;;;;4.53;3.38;;;9.20;61.70;;;;;;5072578;28;20658;-78
2023/03/01 13:04:38;;;;;;;3.53;2.55;;;9.30;61.20;;;;;;5072061;28;20630;-74